Rycroft, Canada
Current Conditions -  °F | °C
As of 7:00 AM on Thursday 18 Dec 2014 (Local Time) from CYQU Reporting Station
Overcast Overcast  
Wind Chill: 10°   Ceiling: 2000
Heat Index: 10°   Visibility: 25mi
Dew Point:   Wind: 0mph
Humidity: 92%   Direction: NA
Pressure: 29.79"   Gusts: NA
Location:  55.77°N, 118.72°W
Report Text: CYQU 181400Z 00000KT 25SM BKN020 OVC040 M12/M13 A2979 RMK SC5SC3 SLP141
Loading
Personal Weather Stations






























Interactive Weather Map New forecast layout! Learn more

10-Day Weather Forecast

Advertisements
Track Severe Weather on mobile